Time;durP1;ratioP1;P1;durP2;ratioP2;P2;SDS_P1;SDS_P2;PMS_P1;PMS_P2;Temp;Humidity;BMP_temperature;BMP_pressure;BME280_temperature;BME280_humidity;BME280_pressure;Samples;Min_cycle;Max_cycle;Signal;HPM_P1;HPM_P2
2023/04/21 00:01:00;;;;;;;16.37;12.63;;;;;;;;;;5012634;28;20468;-88
2023/04/21 00:03:27;;;;;;;19.00;12.73;;;;;;;;;;4996907;28;20484;-88
2023/04/21 00:05:53;;;;;;;15.57;11.90;;;;;;;;;;4998856;28;20435;-88
2023/04/21 00:08:19;;;;;;;23.20;13.80;;;;;;;;;;5004295;28;20434;-87
2023/04/21 00:10:45;;;;;;;16.67;11.50;;;;;;;;;;5027513;28;20430;-87
2023/04/21 00:13:11;;;;;;;17.93;12.07;;;;;;;;;;5004883;28;20989;-87
2023/04/21 00:15:37;;;;;;;19.13;13.27;;;;;;;;;;5004359;28;20434;-87
2023/04/21 00:18:03;;;;;;;20.30;13.33;;;;;;;;;;5018604;28;20512;-87
2023/04/21 00:20:30;;;;;;;22.10;13.50;;;;;;;;;;5002083;28;21185;-87
2023/04/21 00:22:56;;;;;;;19.17;12.13;;;;;;;;;;5001734;28;20462;-87
2023/04/21 00:25:22;;;;;;;18.10;13.07;;;;;;;;;;5003016;28;20423;-88
2023/04/21 00:27:48;;;;;;;15.73;11.60;;;;;;;;;;5002629;28;20442;-88
2023/04/21 00:30:14;;;;;;;17.17;11.17;;;;;;;;;;5008736;28;20432;-87
2023/04/21 00:32:40;;;;;;;18.73;12.53;;;;;;;;;;5002950;28;20910;-88
2023/04/21 00:35:06;;;;;;;20.47;13.30;;;;;;;;;;5008896;28;20419;-88
2023/04/21 00:37:32;;;;;;;22.50;12.77;;;;;;;;;;5000664;28;20520;-87
2023/04/21 00:40:03;;;;;;;18.00;12.60;;;;;;;;;;5002026;28;20453;-87
2023/04/21 00:42:29;;;;;;;16.10;12.20;;;;;;;;;;5000931;28;20431;-87
2023/04/21 00:44:55;;;;;;;19.77;13.03;;;;;;;;;;5007011;28;20804;-87
2023/04/21 00:47:21;;;;;;;22.77;12.57;;;;;;;;;;5009542;28;20430;-87
2023/04/21 00:49:47;;;;;;;18.83;12.87;;;;;;;;;;5004073;28;20511;-87
2023/04/21 00:52:14;;;;;;;19.10;12.63;;;;;;;;;;5005227;28;20466;-86
2023/04/21 00:54:40;;;;;;;18.93;13.57;;;;;;;;;;5015546;28;20618;-86
2023/04/21 00:57:08;;;;;;;16.87;12.77;;;;;;;;;;5017704;28;20582;-86
2023/04/21 00:59:35;;;;;;;15.83;12.90;;;;;;;;;;5001875;28;20442;-88
2023/04/21 01:02:01;;;;;;;15.47;12.63;;;;;;;;;;5002708;28;20436;-86
2023/04/21 01:04:28;;;;;;;16.00;11.37;;;;;;;;;;5002182;28;20423;-87
2023/04/21 01:06:54;;;;;;;22.73;13.60;;;;;;;;;;5006736;28;20411;-86
2023/04/21 01:09:20;;;;;;;20.57;14.33;;;;;;;;;;5017541;28;20457;-86
2023/04/21 01:12:09;;;;;;;18.73;11.90;;;;;;;;;;5000841;28;20442;-87
2023/04/21 01:14:38;;;;;;;19.87;13.40;;;;;;;;;;5016985;28;20424;-87
2023/04/21 01:17:04;;;;;;;24.53;15.17;;;;;;;;;;5007780;28;21118;-86
2023/04/21 01:19:31;;;;;;;18.10;11.70;;;;;;;;;;5003118;28;21265;-87
2023/04/21 01:21:59;;;;;;;18.53;11.53;;;;;;;;;;5007885;28;20872;-87
2023/04/21 01:24:34;;;;;;;17.30;13.70;;;;;;;;;;5005180;28;20523;-87
2023/04/21 01:27:00;;;;;;;23.07;13.07;;;;;;;;;;4996949;28;20447;-87
2023/04/21 01:29:26;;;;;;;21.80;14.60;;;;;;;;;;5012899;28;20423;-86
2023/04/21 01:31:52;;;;;;;21.43;12.77;;;;;;;;;;5009095;28;20933;-87
2023/04/21 01:34:18;;;;;;;19.97;13.07;;;;;;;;;;5025786;28;20457;-87
2023/04/21 01:36:44;;;;;;;19.70;13.10;;;;;;;;;;5004411;28;20465;-86
2023/04/21 01:39:10;;;;;;;19.70;13.83;;;;;;;;;;5022463;28;20435;-87
2023/04/21 01:41:36;;;;;;;19.70;13.07;;;;;;;;;;5001388;28;20419;-86
2023/04/21 01:44:02;;;;;;;21.73;13.53;;;;;;;;;;5008602;28;20479;-86
2023/04/21 01:46:28;;;;;;;18.33;13.17;;;;;;;;;;4999981;28;20436;-86
2023/04/21 01:48:54;;;;;;;19.53;13.90;;;;;;;;;;5017840;28;20522;-85
2023/04/21 01:51:20;;;;;;;18.90;12.43;;;;;;;;;;5004036;28;20506;-86
2023/04/21 01:53:46;;;;;;;18.20;12.50;;;;;;;;;;5002951;28;20473;-85
2023/04/21 01:56:15;;;;;;;16.60;11.90;;;;;;;;;;5002923;28;20837;-86
2023/04/21 01:58:41;;;;;;;17.63;11.40;;;;;;;;;;5026304;28;20565;-86
2023/04/21 02:01:07;;;;;;;17.20;12.00;;;;;;;;;;4999810;28;20538;-84
2023/04/21 02:03:33;;;;;;;16.73;12.77;;;;;;;;;;5001700;28;20428;-86
2023/04/21 02:05:59;;;;;;;19.50;13.30;;;;;;;;;;5003567;28;20427;-86
2023/04/21 02:08:25;;;;;;;21.00;13.27;;;;;;;;;;5025355;28;20917;-86
2023/04/21 02:10:51;;;;;;;19.60;12.87;;;;;;;;;;5006851;28;20502;-86
2023/04/21 02:13:17;;;;;;;18.43;13.43;;;;;;;;;;5002453;28;21114;-86
2023/04/21 02:15:43;;;;;;;14.27;11.03;;;;;;;;;;4999064;28;20477;-86
2023/04/21 02:18:09;;;;;;;19.93;13.17;;;;;;;;;;5005719;28;20542;-86
2023/04/21 02:20:35;;;;;;;16.60;12.00;;;;;;;;;;5000923;28;20927;-88
2023/04/21 02:23:01;;;;;;;18.70;12.57;;;;;;;;;;5018718;28;20450;-87
2023/04/21 02:25:28;;;;;;;14.80;12.90;;;;;;;;;;5021934;28;20530;-86
2023/04/21 02:27:54;;;;;;;20.30;12.97;;;;;;;;;;4998806;28;20427;-86
2023/04/21 02:30:20;;;;;;;19.57;11.37;;;;;;;;;;5017087;28;20441;-86
2023/04/21 02:32:46;;;;;;;17.17;12.27;;;;;;;;;;4991902;28;20435;-86
2023/04/21 02:35:12;;;;;;;24.33;13.50;;;;;;;;;;5002404;28;20931;-86
2023/04/21 02:37:38;;;;;;;20.90;12.60;;;;;;;;;;5003381;28;20459;-86
2023/04/21 02:40:05;;;;;;;19.97;12.83;;;;;;;;;;5000250;28;20466;-86
2023/04/21 02:42:32;;;;;;;19.40;13.10;;;;;;;;;;5010352;28;20583;-85
2023/04/21 02:44:58;;;;;;;17.00;13.03;;;;;;;;;;5000106;28;20431;-85
2023/04/21 02:47:24;;;;;;;19.97;12.80;;;;;;;;;;4992977;28;20427;-86
2023/04/21 02:49:50;;;;;;;19.67;12.80;;;;;;;;;;4998539;28;20518;-86
2023/04/21 02:52:16;;;;;;;17.67;12.37;;;;;;;;;;5022297;28;20527;-86
2023/04/21 02:54:42;;;;;;;17.83;11.60;;;;;;;;;;4997997;28;20434;-85
2023/04/21 02:57:08;;;;;;;19.90;13.63;;;;;;;;;;5004440;28;20513;-86
2023/04/21 02:59:34;;;;;;;25.37;13.73;;;;;;;;;;5015601;28;20435;-86
2023/04/21 03:02:00;;;;;;;18.73;13.00;;;;;;;;;;5018996;28;20435;-86
2023/04/21 03:04:26;;;;;;;18.13;11.10;;;;;;;;;;4998635;28;20451;-86
2023/04/21 03:06:53;;;;;;;18.43;13.00;;;;;;;;;;4997981;28;20431;-86
2023/04/21 03:09:19;;;;;;;23.67;12.97;;;;;;;;;;4998344;28;20501;-86
2023/04/21 03:11:45;;;;;;;22.13;14.23;;;;;;;;;;5016201;28;20945;-86
2023/04/21 03:14:11;;;;;;;18.73;13.60;;;;;;;;;;5018031;28;20977;-86
2023/04/21 03:16:37;;;;;;;22.73;13.50;;;;;;;;;;5005255;28;20482;-85
2023/04/21 03:19:03;;;;;;;21.47;12.70;;;;;;;;;;4997522;28;20518;-86
2023/04/21 03:21:30;;;;;;;20.17;14.10;;;;;;;;;;5025309;28;20911;-86
2023/04/21 03:23:56;;;;;;;23.93;12.60;;;;;;;;;;4998667;28;20519;-86
2023/04/21 03:26:22;;;;;;;19.57;13.33;;;;;;;;;;4998549;28;20869;-85
2023/04/21 03:28:48;;;;;;;21.57;11.83;;;;;;;;;;5003095;28;20434;-85
2023/04/21 03:31:14;;;;;;;26.63;14.90;;;;;;;;;;5001264;28;20798;-86
2023/04/21 03:33:40;;;;;;;17.93;12.90;;;;;;;;;;5013901;28;20449;-85
2023/04/21 03:36:06;;;;;;;19.27;12.70;;;;;;;;;;4999671;28;21153;-85
2023/04/21 03:38:32;;;;;;;20.90;11.33;;;;;;;;;;4997451;28;20415;-86
2023/04/21 03:40:58;;;;;;;25.67;13.77;;;;;;;;;;4992159;28;20433;-86
2023/04/21 03:43:24;;;;;;;28.30;15.93;;;;;;;;;;5000611;28;20432;-85
2023/04/21 03:45:50;;;;;;;23.77;13.53;;;;;;;;;;4999580;28;20482;-86
2023/04/21 03:48:16;;;;;;;21.30;14.00;;;;;;;;;;5022410;28;20469;-86
2023/04/21 03:50:42;;;;;;;28.10;15.50;;;;;;;;;;4997569;28;20493;-87
2023/04/21 03:53:08;;;;;;;21.80;14.40;;;;;;;;;;5000202;28;20514;-86
2023/04/21 03:55:34;;;;;;;18.37;12.13;;;;;;;;;;4997972;28;20561;-86
2023/04/21 03:58:00;;;;;;;21.50;14.03;;;;;;;;;;4998020;28;20477;-86
2023/04/21 04:00:26;;;;;;;24.30;14.43;;;;;;;;;;5028039;28;20443;-85
2023/04/21 04:02:52;;;;;;;21.30;13.40;;;;;;;;;;4998695;28;20895;-86
2023/04/21 04:05:18;;;;;;;21.93;14.20;;;;;;;;;;4999337;28;20428;-85
2023/04/21 04:07:44;;;;;;;21.97;14.67;;;;;;;;;;5001475;28;20557;-85
2023/04/21 04:10:10;;;;;;;23.53;14.60;;;;;;;;;;4998250;28;20451;-86
2023/04/21 04:12:36;;;;;;;26.43;13.93;;;;;;;;;;5017847;28;20915;-85
2023/04/21 04:15:02;;;;;;;22.00;14.33;;;;;;;;;;4999027;28;20434;-84
2023/04/21 04:17:28;;;;;;;22.20;13.47;;;;;;;;;;5019447;28;21014;-86
2023/04/21 04:19:55;;;;;;;23.50;15.13;;;;;;;;;;4999206;28;21247;-85
2023/04/21 04:22:21;;;;;;;24.13;14.13;;;;;;;;;;5014727;28;20424;-87
2023/04/21 04:24:47;;;;;;;19.60;13.13;;;;;;;;;;4996900;28;20988;-86
2023/04/21 04:27:13;;;;;;;18.40;12.93;;;;;;;;;;4996835;28;20482;-87
2023/04/21 04:29:42;;;;;;;20.07;12.80;;;;;;;;;;5017325;28;20423;-93
2023/04/21 04:32:09;;;;;;;22.40;14.47;;;;;;;;;;5037422;28;20494;-88
2023/04/21 04:34:36;;;;;;;18.90;13.90;;;;;;;;;;4998383;28;20927;-87
2023/04/21 04:37:03;;;;;;;21.60;14.87;;;;;;;;;;5021608;28;20542;-88
2023/04/21 04:39:30;;;;;;;23.40;15.07;;;;;;;;;;4996565;28;20790;-90
2023/04/21 04:41:56;;;;;;;26.23;15.40;;;;;;;;;;5001512;28;20861;-89
2023/04/21 04:44:24;;;;;;;20.60;14.30;;;;;;;;;;5000661;28;20442;-89
2023/04/21 04:46:51;;;;;;;21.50;15.70;;;;;;;;;;5005164;28;20919;-87
2023/04/21 04:49:17;;;;;;;21.93;14.00;;;;;;;;;;5021338;28;20445;-91
2023/04/21 04:51:43;;;;;;;21.50;14.80;;;;;;;;;;4998925;28;21486;-87
2023/04/21 04:54:09;;;;;;;20.40;13.20;;;;;;;;;;5003460;28;20427;-89
2023/04/21 04:56:36;;;;;;;19.30;13.03;;;;;;;;;;5005208;28;20481;-91
2023/04/21 04:59:02;;;;;;;20.80;13.30;;;;;;;;;;5002653;28;20443;-86
2023/04/21 05:01:29;;;;;;;21.53;14.70;;;;;;;;;;5002358;28;20435;-87
2023/04/21 05:03:55;;;;;;;20.40;12.87;;;;;;;;;;5000085;28;20453;-87
2023/04/21 05:06:22;;;;;;;22.20;14.40;;;;;;;;;;5002216;28;20944;-87
2023/04/21 05:08:48;;;;;;;20.90;13.83;;;;;;;;;;5000202;28;20825;-87
2023/04/21 05:11:14;;;;;;;23.00;13.80;;;;;;;;;;5004319;28;20431;-87
2023/04/21 05:13:40;;;;;;;21.80;14.47;;;;;;;;;;5000488;28;20437;-86
2023/04/21 05:16:06;;;;;;;16.47;12.63;;;;;;;;;;5000784;28;20464;-86
2023/04/21 05:18:32;;;;;;;22.70;14.03;;;;;;;;;;4999962;28;20497;-87
2023/04/21 05:20:59;;;;;;;22.00;16.03;;;;;;;;;;5020157;28;20911;-87
2023/04/21 05:23:25;;;;;;;22.13;15.17;;;;;;;;;;5001143;28;20419;-86
2023/04/21 05:25:51;;;;;;;19.87;14.40;;;;;;;;;;4998447;28;20853;-88
2023/04/21 05:28:17;;;;;;;24.40;16.50;;;;;;;;;;5001580;28;20809;-88
2023/04/21 05:30:43;;;;;;;27.77;15.40;;;;;;;;;;4999844;28;20513;-87
2023/04/21 05:33:09;;;;;;;22.27;14.87;;;;;;;;;;5001550;28;20455;-87
2023/04/21 05:35:35;;;;;;;21.37;14.17;;;;;;;;;;4990417;28;20443;-88
2023/04/21 05:38:01;;;;;;;24.47;15.07;;;;;;;;;;5016563;28;20558;-87
2023/04/21 05:40:27;;;;;;;24.97;15.10;;;;;;;;;;5006402;28;20459;-88
2023/04/21 05:42:53;;;;;;;23.70;14.03;;;;;;;;;;5001722;28;20431;-87
2023/04/21 05:45:19;;;;;;;24.27;15.20;;;;;;;;;;4998989;28;20454;-87
2023/04/21 05:47:45;;;;;;;25.80;14.73;;;;;;;;;;4999416;28;20436;-87
2023/04/21 05:50:12;;;;;;;24.30;15.40;;;;;;;;;;5000362;28;20426;-87
2023/04/21 05:52:38;;;;;;;21.97;14.47;;;;;;;;;;5007355;28;20454;-86
2023/04/21 05:55:04;;;;;;;25.03;14.90;;;;;;;;;;5017422;28;20415;-86
2023/04/21 05:57:30;;;;;;;23.50;14.60;;;;;;;;;;4998620;28;20458;-87
2023/04/21 05:59:56;;;;;;;22.70;14.70;;;;;;;;;;4999152;28;20442;-87
2023/04/21 06:02:22;;;;;;;22.50;14.70;;;;;;;;;;5000090;28;20523;-86
2023/04/21 06:04:48;;;;;;;28.40;16.53;;;;;;;;;;5003052;28;20427;-86
2023/04/21 06:07:14;;;;;;;20.13;13.53;;;;;;;;;;5007305;28;20462;-87
2023/04/21 06:09:40;;;;;;;22.03;15.13;;;;;;;;;;4999055;28;20881;-88
2023/04/21 06:12:06;;;;;;;25.63;16.93;;;;;;;;;;4999004;28;20447;-87
2023/04/21 06:14:32;;;;;;;25.87;16.70;;;;;;;;;;5004818;28;20422;-87
2023/04/21 06:16:58;;;;;;;26.13;15.97;;;;;;;;;;5003063;28;20505;-86
2023/04/21 06:19:24;;;;;;;25.30;15.07;;;;;;;;;;5000016;28;20763;-87
2023/04/21 06:21:50;;;;;;;22.17;15.13;;;;;;;;;;5000814;28;20887;-86
2023/04/21 06:24:23;;;;;;;22.13;16.77;;;;;;;;;;4998523;28;20473;-87
2023/04/21 06:26:50;;;;;;;20.83;15.77;;;;;;;;;;5001841;28;20428;-87
2023/04/21 06:29:15;;;;;;;26.67;17.57;;;;;;;;;;5000392;28;20475;-87
2023/04/21 06:31:41;;;;;;;25.30;16.77;;;;;;;;;;5011743;28;20486;-88
2023/04/21 06:34:07;;;;;;;28.03;17.17;;;;;;;;;;5018707;28;20534;-89
2023/04/21 06:36:34;;;;;;;24.50;16.73;;;;;;;;;;5001494;28;20486;-87
2023/04/21 06:39:00;;;;;;;30.47;16.00;;;;;;;;;;5017917;28;20466;-86
2023/04/21 06:41:29;;;;;;;26.40;18.20;;;;;;;;;;4999960;28;20427;-90
2023/04/21 06:43:55;;;;;;;24.90;17.07;;;;;;;;;;5016639;28;20477;-87
2023/04/21 06:46:21;;;;;;;28.63;17.97;;;;;;;;;;5018751;28;20509;-89
2023/04/21 06:48:47;;;;;;;24.07;17.33;;;;;;;;;;4999967;28;20485;-87
2023/04/21 06:51:13;;;;;;;25.53;17.37;;;;;;;;;;5001342;28;21365;-88
2023/04/21 06:53:39;;;;;;;26.60;16.67;;;;;;;;;;5016397;28;20526;-89
2023/04/21 06:56:06;;;;;;;23.97;15.50;;;;;;;;;;4999729;28;20528;-89
2023/04/21 06:58:32;;;;;;;21.93;15.60;;;;;;;;;;5002229;28;20451;-88
2023/04/21 07:00:57;;;;;;;26.17;15.70;;;;;;;;;;4999276;28;20777;-88
2023/04/21 07:03:24;;;;;;;24.17;16.00;;;;;;;;;;5018306;28;20462;-89
2023/04/21 07:05:50;;;;;;;20.87;15.87;;;;;;;;;;4998232;28;20443;-88
2023/04/21 07:08:16;;;;;;;21.43;16.03;;;;;;;;;;4997743;28;20588;-88
2023/04/21 07:10:42;;;;;;;22.77;15.87;;;;;;;;;;4997324;28;20503;-88
2023/04/21 07:13:09;;;;;;;27.67;17.17;;;;;;;;;;5005539;28;20466;-88
2023/04/21 07:15:35;;;;;;;27.73;19.17;;;;;;;;;;4997948;28;21281;-88
2023/04/21 07:18:01;;;;;;;23.57;16.60;;;;;;;;;;4999865;28;20451;-87
2023/04/21 07:20:27;;;;;;;27.10;16.57;;;;;;;;;;4997857;28;20996;-88
2023/04/21 07:22:53;;;;;;;28.53;17.27;;;;;;;;;;5000632;28;20434;-87
2023/04/21 07:25:19;;;;;;;26.90;17.13;;;;;;;;;;5000846;28;20549;-90
2023/04/21 07:27:45;;;;;;;23.93;16.00;;;;;;;;;;5001500;28;20479;-88
2023/04/21 07:30:11;;;;;;;25.10;16.90;;;;;;;;;;4997919;28;20435;-89
2023/04/21 07:32:37;;;;;;;24.27;16.73;;;;;;;;;;5001677;28;20790;-90
2023/04/21 07:35:04;;;;;;;25.60;16.60;;;;;;;;;;5014330;28;20520;-89
2023/04/21 07:37:30;;;;;;;19.70;15.33;;;;;;;;;;4999095;28;20478;-90
2023/04/21 07:39:56;;;;;;;27.07;18.27;;;;;;;;;;5002874;28;20517;-89
2023/04/21 07:42:22;;;;;;;26.83;17.67;;;;;;;;;;4996834;28;20462;-91
2023/04/21 07:44:48;;;;;;;21.20;14.40;;;;;;;;;;5000730;28;20415;-90
2023/04/21 07:47:14;;;;;;;23.30;14.60;;;;;;;;;;4999273;28;20948;-90
2023/04/21 07:49:40;;;;;;;19.47;14.57;;;;;;;;;;4999348;28;20492;-89
2023/04/21 07:52:07;;;;;;;20.73;14.30;;;;;;;;;;5000846;28;20836;-89
2023/04/21 07:54:33;;;;;;;18.00;14.00;;;;;;;;;;5001861;28;20436;-89
2023/04/21 07:57:01;;;;;;;19.63;14.00;;;;;;;;;;4997172;28;20459;-90
2023/04/21 07:59:27;;;;;;;17.93;14.10;;;;;;;;;;5007030;28;20457;-91
2023/04/21 08:01:53;;;;;;;12.90;10.50;;;;;;;;;;5014999;28;20433;-91
2023/04/21 08:04:19;;;;;;;13.57;9.67;;;;;;;;;;5036231;28;20442;-90
2023/04/21 08:06:45;;;;;;;12.20;10.37;;;;;;;;;;4999098;28;20462;-90
2023/04/21 08:09:11;;;;;;;11.87;9.90;;;;;;;;;;4997066;28;20446;-90
2023/04/21 08:11:37;;;;;;;12.70;10.30;;;;;;;;;;5009471;28;21009;-89
2023/04/21 08:14:03;;;;;;;14.10;10.20;;;;;;;;;;5013236;28;20507;-89
2023/04/21 08:16:29;;;;;;;10.03;8.27;;;;;;;;;;5005288;28;20461;-90
2023/04/21 08:18:55;;;;;;;10.63;9.17;;;;;;;;;;5000560;28;20858;-90
2023/04/21 08:21:22;;;;;;;11.07;7.97;;;;;;;;;;4999069;28;20816;-89
2023/04/21 08:23:49;;;;;;;11.73;7.90;;;;;;;;;;5000113;28;20455;-90
2023/04/21 08:26:15;;;;;;;12.23;8.43;;;;;;;;;;4997472;28;20432;-89
2023/04/21 08:28:41;;;;;;;11.37;8.20;;;;;;;;;;5004116;28;20493;-90
2023/04/21 08:31:07;;;;;;;9.77;6.80;;;;;;;;;;5002331;28;20430;-91
2023/04/21 08:33:33;;;;;;;11.80;8.03;;;;;;;;;;5001349;28;20894;-88
2023/04/21 08:36:00;;;;;;;11.87;9.60;;;;;;;;;;4998931;28;20442;-91
2023/04/21 08:38:26;;;;;;;12.70;9.10;;;;;;;;;;5003330;28;20467;-91
2023/04/21 08:40:52;;;;;;;10.20;7.43;;;;;;;;;;5001141;28;21048;-91
2023/04/21 08:43:18;;;;;;;13.87;8.80;;;;;;;;;;5003384;28;20848;-91
2023/04/21 08:45:44;;;;;;;11.73;7.73;;;;;;;;;;5002047;28;20431;-88
2023/04/21 08:48:11;;;;;;;12.93;8.87;;;;;;;;;;5002482;28;20442;-90
2023/04/21 08:50:37;;;;;;;14.27;8.20;;;;;;;;;;5005782;28;20432;-88
2023/04/21 08:53:03;;;;;;;13.73;10.00;;;;;;;;;;5017526;28;20441;-89
2023/04/21 08:55:30;;;;;;;11.43;8.90;;;;;;;;;;5006624;28;20473;-89
2023/04/21 08:57:56;;;;;;;10.60;8.60;;;;;;;;;;4999202;28;20949;-88
2023/04/21 09:00:22;;;;;;;11.97;8.90;;;;;;;;;;4999008;28;20483;-90
2023/04/21 09:02:58;;;;;;;13.70;9.80;;;;;;;;;;5021815;28;20468;-89
2023/04/21 09:05:25;;;;;;;14.40;9.33;;;;;;;;;;5013197;28;20445;-89
2023/04/21 09:07:51;;;;;;;14.00;9.47;;;;;;;;;;5002661;28;20455;-87
2023/04/21 09:10:23;;;;;;;11.20;8.70;;;;;;;;;;5002398;28;20814;-87
2023/04/21 09:12:54;;;;;;;12.60;8.83;;;;;;;;;;5001588;28;20484;-87
2023/04/21 09:15:21;;;;;;;14.47;9.47;;;;;;;;;;5001698;28;20435;-87
2023/04/21 09:17:47;;;;;;;12.37;9.13;;;;;;;;;;5007552;28;20831;-86
2023/04/21 09:20:14;;;;;;;11.33;8.70;;;;;;;;;;5003559;28;20481;-89
2023/04/21 09:22:40;;;;;;;10.17;8.23;;;;;;;;;;5005146;28;20435;-88
2023/04/21 09:25:06;;;;;;;9.60;8.60;;;;;;;;;;5001647;28;20481;-89
2023/04/21 09:27:35;;;;;;;12.37;8.40;;;;;;;;;;5032951;28;20429;-89
2023/04/21 09:30:05;;;;;;;12.67;9.73;;;;;;;;;;5002118;28;20443;-89
2023/04/21 09:32:35;;;;;;;12.13;8.83;;;;;;;;;;5004262;28;20443;-88
2023/04/21 09:35:01;;;;;;;10.87;8.23;;;;;;;;;;5003292;28;20531;-86
2023/04/21 09:37:28;;;;;;;12.37;8.70;;;;;;;;;;4999913;28;20884;-88
2023/04/21 09:39:54;;;;;;;12.50;7.60;;;;;;;;;;5001253;28;20490;-88
2023/04/21 09:42:20;;;;;;;8.90;7.90;;;;;;;;;;5006947;28;20411;-89
2023/04/21 09:44:46;;;;;;;11.47;8.33;;;;;;;;;;5015412;28;20600;-88
2023/04/21 09:47:12;;;;;;;11.17;8.80;;;;;;;;;;4999885;28;22437;-88
2023/04/21 09:49:43;;;;;;;12.07;8.27;;;;;;;;;;5011400;28;21070;-88
2023/04/21 09:52:10;;;;;;;9.10;7.60;;;;;;;;;;5018908;28;20533;-88
2023/04/21 09:54:36;;;;;;;9.53;7.57;;;;;;;;;;5014394;28;20427;-89
2023/04/21 09:57:03;;;;;;;11.47;8.03;;;;;;;;;;5001729;28;20462;-89
2023/04/21 09:59:30;;;;;;;12.77;7.77;;;;;;;;;;5001695;28;20442;-89
2023/04/21 10:01:56;;;;;;;10.03;7.23;;;;;;;;;;5000304;28;21083;-89
2023/04/21 10:04:22;;;;;;;9.70;8.00;;;;;;;;;;5000699;28;20423;-88
2023/04/21 10:06:48;;;;;;;9.83;7.87;;;;;;;;;;5002758;28;20435;-89
2023/04/21 10:09:15;;;;;;;9.93;8.00;;;;;;;;;;5003903;28;20593;-90
2023/04/21 10:11:41;;;;;;;8.83;7.40;;;;;;;;;;4999326;28;20435;-90
2023/04/21 10:14:08;;;;;;;8.97;6.70;;;;;;;;;;5007472;28;20446;-89
2023/04/21 10:16:37;;;;;;;8.80;7.40;;;;;;;;;;4998699;28;20586;-90
2023/04/21 10:19:08;;;;;;;10.60;8.10;;;;;;;;;;4998856;28;20439;-90
2023/04/21 10:21:34;;;;;;;9.67;7.17;;;;;;;;;;5012629;28;20431;-90
2023/04/21 10:24:00;;;;;;;8.70;6.23;;;;;;;;;;4997090;28;20430;-89
2023/04/21 10:26:28;;;;;;;6.80;6.10;;;;;;;;;;4998546;28;20443;-89
2023/04/21 10:28:54;;;;;;;11.40;7.17;;;;;;;;;;5002742;28;20442;-89
2023/04/21 10:31:20;;;;;;;8.43;6.00;;;;;;;;;;5013360;28;20441;-90
2023/04/21 10:34:05;;;;;;;7.43;5.53;;;;;;;;;;5016315;28;20435;-90
2023/04/21 10:36:33;;;;;;;9.23;6.17;;;;;;;;;;5027440;28;20470;-91
2023/04/21 10:39:02;;;;;;;8.67;6.60;;;;;;;;;;5010858;28;20950;-90
2023/04/21 10:41:29;;;;;;;12.90;6.83;;;;;;;;;;4999059;28;21010;-90
2023/04/21 10:44:01;;;;;;;9.27;6.50;;;;;;;;;;4993658;28;20439;-92
2023/04/21 10:46:34;;;;;;;8.33;6.50;;;;;;;;;;4998957;28;20502;-90
2023/04/21 10:49:07;;;;;;;8.30;6.30;;;;;;;;;;5013931;28;20573;-90
2023/04/21 10:51:35;;;;;;;10.50;7.07;;;;;;;;;;5000507;28;20438;-90
2023/04/21 10:54:04;;;;;;;10.50;7.07;;;;;;;;;;5003625;28;20445;-91
2023/04/21 10:56:30;;;;;;;10.10;6.43;;;;;;;;;;5000861;28;20860;-91
2023/04/21 10:58:56;;;;;;;8.90;7.30;;;;;;;;;;4995926;28;20499;-89
2023/04/21 11:01:22;;;;;;;11.17;8.10;;;;;;;;;;5002574;28;20434;-90
2023/04/21 11:03:48;;;;;;;9.90;7.00;;;;;;;;;;5004792;28;20403;-89
2023/04/21 11:06:16;;;;;;;7.67;5.70;;;;;;;;;;4998177;28;20431;-90
2023/04/21 11:08:55;;;;;;;8.70;7.17;;;;;;;;;;4997748;28;20470;-90
2023/04/21 11:11:22;;;;;;;8.87;6.33;;;;;;;;;;5005731;28;20427;-90
2023/04/21 11:13:48;;;;;;;9.77;8.13;;;;;;;;;;5004192;28;20507;-91
2023/04/21 11:16:15;;;;;;;7.57;6.50;;;;;;;;;;5015720;28;20431;-90
2023/04/21 11:18:41;;;;;;;9.67;7.60;;;;;;;;;;5000667;28;20461;-89
2023/04/21 11:21:18;;;;;;;8.67;6.63;;;;;;;;;;4998577;28;20500;-90
2023/04/21 11:23:48;;;;;;;8.70;6.60;;;;;;;;;;5000171;28;20427;-93
2023/04/21 11:26:15;;;;;;;7.93;6.70;;;;;;;;;;5014814;28;20512;-90
2023/04/21 11:28:41;;;;;;;7.33;6.17;;;;;;;;;;4998999;28;20427;-91
2023/04/21 11:31:07;;;;;;;8.93;7.17;;;;;;;;;;5001073;28;20438;-90
2023/04/21 11:33:39;;;;;;;9.83;5.67;;;;;;;;;;5016818;28;21054;-89
2023/04/21 11:36:08;;;;;;;8.33;7.00;;;;;;;;;;4998976;28;20513;-89
2023/04/21 11:38:40;;;;;;;8.03;7.23;;;;;;;;;;5018427;28;20442;-92
2023/04/21 11:41:08;;;;;;;8.87;6.93;;;;;;;;;;5000873;28;20919;-92
2023/04/21 11:43:34;;;;;;;8.97;7.30;;;;;;;;;;5000161;28;20439;-91
2023/04/21 11:46:22;;;;;;;8.77;7.37;;;;;;;;;;5011736;28;20439;-89
2023/04/21 11:48:57;;;;;;;7.70;6.93;;;;;;;;;;4997860;28;20462;-90
2023/04/21 11:51:23;;;;;;;8.33;7.43;;;;;;;;;;5018978;28;20459;-90
2023/04/21 11:53:49;;;;;;;7.17;6.47;;;;;;;;;;5001723;28;20423;-91
2023/04/21 11:56:18;;;;;;;9.17;7.50;;;;;;;;;;5003315;28;20439;-90
2023/04/21 11:58:45;;;;;;;7.70;6.90;;;;;;;;;;5002529;28;20443;-90
2023/04/21 12:01:11;;;;;;;7.50;6.33;;;;;;;;;;5015291;28;20427;-91
2023/04/21 12:03:37;;;;;;;9.30;8.17;;;;;;;;;;5006245;28;20973;-90
2023/04/21 12:06:03;;;;;;;9.23;7.43;;;;;;;;;;5009067;28;20458;-90
2023/04/21 12:08:30;;;;;;;9.53;7.73;;;;;;;;;;5002948;28;20443;-90
2023/04/21 12:10:58;;;;;;;7.73;6.93;;;;;;;;;;5001823;28;20435;-91
2023/04/21 12:13:34;;;;;;;9.73;8.07;;;;;;;;;;5017106;28;20526;-88
2023/04/21 12:16:02;;;;;;;7.90;7.10;;;;;;;;;;5010152;28;20435;-90
2023/04/21 12:18:28;;;;;;;9.57;7.53;;;;;;;;;;5016880;28;20446;-90
2023/04/21 12:20:54;;;;;;;8.17;7.10;;;;;;;;;;5006841;28;20427;-91
2023/04/21 12:23:20;;;;;;;9.57;7.03;;;;;;;;;;5004333;28;20433;-91
2023/04/21 12:25:47;;;;;;;7.30;6.60;;;;;;;;;;5007522;28;21184;-89
2023/04/21 12:28:13;;;;;;;7.10;6.23;;;;;;;;;;5007870;28;20444;-90
2023/04/21 12:30:39;;;;;;;7.67;6.87;;;;;;;;;;5002216;28;20447;-91
2023/04/21 12:33:05;;;;;;;7.60;6.80;;;;;;;;;;5010405;28;20436;-91
2023/04/21 12:35:32;;;;;;;6.50;5.90;;;;;;;;;;5009501;28;20434;-90
2023/04/21 12:37:58;;;;;;;6.80;6.10;;;;;;;;;;5006661;28;20463;-91
2023/04/21 12:40:24;;;;;;;7.50;5.90;;;;;;;;;;5007751;28;20427;-91
2023/04/21 12:42:50;;;;;;;6.57;5.97;;;;;;;;;;5006576;28;20442;-89
2023/04/21 12:45:16;;;;;;;7.63;6.40;;;;;;;;;;5004360;28;20431;-90
2023/04/21 12:47:42;;;;;;;6.70;6.03;;;;;;;;;;5006435;28;20435;-91
2023/04/21 12:50:12;;;;;;;6.53;5.93;;;;;;;;;;5005220;28;20431;-91
2023/04/21 12:52:38;;;;;;;7.70;6.90;;;;;;;;;;5020578;28;20507;-90
2023/04/21 12:55:05;;;;;;;7.07;6.37;;;;;;;;;;5003463;28;20517;-90
2023/04/21 12:57:31;;;;;;;6.10;5.50;;;;;;;;;;5003964;28;20518;-89
2023/04/21 12:59:57;;;;;;;7.30;5.70;;;;;;;;;;4981091;28;20476;-91
2023/04/21 13:02:23;;;;;;;6.17;5.40;;;;;;;;;;5015005;28;20429;-91
2023/04/21 13:04:52;;;;;;;7.27;6.27;;;;;;;;;;5013992;28;20464;-90
2023/04/21 13:07:20;;;;;;;5.30;4.80;;;;;;;;;;5014394;28;20444;-90
2023/04/21 13:09:46;;;;;;;6.43;5.07;;;;;;;;;;5016433;28;20444;-90
2023/04/21 13:12:12;;;;;;;6.33;5.53;;;;;;;;;;5023452;28;20833;-91
2023/04/21 13:14:38;;;;;;;5.50;5.00;;;;;;;;;;5006364;28;20432;-90
2023/04/21 13:17:04;;;;;;;6.50;5.00;;;;;;;;;;4976259;28;20960;-90
2023/04/21 13:19:31;;;;;;;5.40;4.90;;;;;;;;;;4977812;28;20786;-90
2023/04/21 13:21:57;;;;;;;5.60;5.00;;;;;;;;;;5012286;28;20429;-91
2023/04/21 13:24:26;;;;;;;8.53;4.73;;;;;;;;;;4993118;28;20528;-91
2023/04/21 13:26:52;;;;;;;6.43;5.80;;;;;;;;;;4964424;28;20437;-92
2023/04/21 13:29:18;;;;;;;8.30;5.07;;;;;;;;;;4999145;28;20528;-90
2023/04/21 13:31:44;;;;;;;5.20;4.70;;;;;;;;;;4996920;28;20655;-90
2023/04/21 13:34:10;;;;;;;4.93;4.43;;;;;;;;;;5002107;28;20435;-89
2023/04/21 13:36:36;;;;;;;5.97;5.40;;;;;;;;;;5001292;28;20455;-89
2023/04/21 13:39:04;;;;;;;5.87;4.90;;;;;;;;;;5013578;28;20763;-89
2023/04/21 13:41:30;;;;;;;5.87;4.40;;;;;;;;;;5001851;28;20424;-88
2023/04/21 13:43:56;;;;;;;7.37;4.77;;;;;;;;;;5001456;28;20812;-88
2023/04/21 13:46:23;;;;;;;6.43;5.13;;;;;;;;;;5002391;28;20427;-89
2023/04/21 13:48:50;;;;;;;5.63;4.97;;;;;;;;;;5016797;28;20487;-88
2023/04/21 13:51:16;;;;;;;4.83;4.30;;;;;;;;;;5001678;28;20447;-89
2023/04/21 13:53:42;;;;;;;5.03;4.53;;;;;;;;;;5015485;28;20441;-89
2023/04/21 13:56:12;;;;;;;4.47;4.07;;;;;;;;;;5016369;28;20431;-88
2023/04/21 13:58:38;;;;;;;7.03;4.60;;;;;;;;;;5002515;28;20467;-89
2023/04/21 14:01:04;;;;;;;6.30;5.67;;;;;;;;;;5001057;28;20865;-88
2023/04/21 14:03:30;;;;;;;5.53;5.03;;;;;;;;;;5006510;28;20674;-89
2023/04/21 14:05:56;;;;;;;5.40;4.67;;;;;;;;;;5007152;28;20561;-89
2023/04/21 14:08:22;;;;;;;5.00;4.50;;;;;;;;;;5013733;28;20486;-89
2023/04/21 14:10:48;;;;;;;4.80;4.30;;;;;;;;;;5003074;28;20442;-88
2023/04/21 14:13:21;;;;;;;6.93;5.57;;;;;;;;;;5007952;28;20417;-94
2023/04/21 14:15:47;;;;;;;4.97;4.07;;;;;;;;;;5019877;28;20443;-91
2023/04/21 14:18:16;;;;;;;4.33;3.80;;;;;;;;;;5022342;28;20458;-92
2023/04/21 14:20:42;;;;;;;4.47;3.80;;;;;;;;;;5009079;28;20461;-92
2023/04/21 14:23:09;;;;;;;4.10;3.70;;;;;;;;;;5004744;28;20427;-91